Nearby METAR Reports

 

TNCA - Queen Beatrix, Lesser Antilles
Distance from station: 0 0km
Updated: 20/07/2018 00:00
Few Clouds
Few Clouds
 Wind from E
Wind: E 35 km/h
Temperature: 27°C
Heat Index: 31°C
Dew Point: 25°C
Humidity: 89%
Barometer: 1012 hPa
Clouds: Few Clouds
Visibility: 10 km
Cloud details: Few Clouds 549 m
2018/07/20 04:00 TNCA 200400Z 10019KT 9999 FEW018 27/25 Q1012 NOSIG
SVJC - Paraguana/Josefa, Venezuela
Distance from station: S 83km
Updated: 23/06/2018 06:00
NOT Current

 
2018/06/23 10:00 SVJC 231000Z NI
 
TNCC - Hato Air Curacao, Lesser Antilles
Distance from station: ESE 117km
Updated: 20/07/2018 00:00
Clear
Clear
 Wind from ESE
Wind: ESE 19 km/h
Temperature: 27°C
Heat Index: 31°C
Dew Point: 24°C
Humidity: 84%
Barometer: 1013 hPa
Clouds: Clear
Visibility: 10 km
2018/07/20 04:00 TNCC 200400Z AUTO 12010KT 9999 NCD 27/24 Q1013
SVCR - Coro/Jose Leonar, Venezuela
Distance from station: SSE 126km
Updated: 19/07/2018 23:00
NOT Current
Few Clouds
Few Clouds
 Wind from varies
Wind: varies 0 km/h
Temperature: 27°C
Heat Index: 30°C
Dew Point: 23°C
Humidity: 79%
Barometer: 1013 hPa
Clouds: Few Clouds
Visibility: 10 km
Cloud details: Few Clouds 396 m
2018/07/20 03:00 SVCR 200300Z /////KT 9999 FEW013 27/23 Q1013
 
TNCB - Bonaire/Flamingo, Lesser Antilles
Distance from station: ESE 191km
Updated: 19/07/2018 23:55
Few Clouds
Few Clouds
 Wind from E
Wind: E 30 km/h
Temperature: 28°C
Heat Index: 32°C
Dew Point: 25°C
Humidity: 84%
Barometer: 1013 hPa
Clouds: Few Clouds
Cloud details: Few Clouds 488 m
2018/07/20 03:55 TNCB 200355Z AUTO 10016KT 080V140 //// // FEW016/// 28/25 Q1013 RE//
SVMC - Maracaibo/La Chi, Venezuela
Distance from station: SW 285km
Updated: 04/07/2018 19:00
NOT Current
Partly Cloudy
Partly Cloudy
 Wind from NNE
Wind: NNE 4 km/h
Temperature: 30°C
Heat Index: 41°C
Dew Point: 28°C
Humidity: 89%
Barometer: 1009 hPa
Clouds: Partly Cloudy
Visibility: 10 km
Cloud details: Partly Cloudy 396 m
2018/07/04 23:00 SVMC 042300Z 02002KT 9999 SCT013 30/28 Q1009